sensor_id;sensor_type;location;lat;lon;timestamp;P1;durP1;ratioP1;P2;durP2;ratioP2
55170;SDS011;41060;47.510;8.680;2023-02-22T00:00:33;11.27;;;3.97;;
55170;SDS011;41060;47.510;8.680;2023-02-22T00:03:11;5.75;;;2.85;;
55170;SDS011;41060;47.510;8.680;2023-02-22T00:05:40;6.20;;;2.75;;
55170;SDS011;41060;47.510;8.680;2023-02-22T00:08:09;9.77;;;2.72;;
55170;SDS011;41060;47.510;8.680;2023-02-22T00:10:38;6.97;;;3.80;;
55170;SDS011;41060;47.510;8.680;2023-02-22T00:13:08;5.43;;;3.78;;
55170;SDS011;41060;47.510;8.680;2023-02-22T00:15:38;6.05;;;4.28;;
55170;SDS011;41060;47.510;8.680;2023-02-22T00:18:06;6.10;;;3.30;;
55170;SDS011;41060;47.510;8.680;2023-02-22T00:20:35;5.57;;;3.13;;
55170;SDS011;41060;47.510;8.680;2023-02-22T00:23:06;6.50;;;3.65;;
55170;SDS011;41060;47.510;8.680;2023-02-22T00:25:33;5.15;;;2.90;;
55170;SDS011;41060;47.510;8.680;2023-02-22T00:28:02;4.90;;;2.83;;
55170;SDS011;41060;47.510;8.680;2023-02-22T00:30:31;5.85;;;3.65;;
55170;SDS011;41060;47.510;8.680;2023-02-22T00:32:58;4.63;;;3.03;;
55170;SDS011;41060;47.510;8.680;2023-02-22T00:35:26;8.60;;;4.13;;
55170;SDS011;41060;47.510;8.680;2023-02-22T00:37:55;6.22;;;3.00;;
55170;SDS011;41060;47.510;8.680;2023-02-22T00:40:23;8.10;;;3.25;;
55170;SDS011;41060;47.510;8.680;2023-02-22T00:42:52;6.40;;;3.22;;
55170;SDS011;41060;47.510;8.680;2023-02-22T00:45:21;7.72;;;3.85;;
55170;SDS011;41060;47.510;8.680;2023-02-22T00:47:49;8.20;;;2.63;;
55170;SDS011;41060;47.510;8.680;2023-02-22T00:50:18;5.35;;;2.75;;
55170;SDS011;41060;47.510;8.680;2023-02-22T00:52:45;6.03;;;3.13;;
55170;SDS011;41060;47.510;8.680;2023-02-22T00:55:15;5.05;;;2.97;;
55170;SDS011;41060;47.510;8.680;2023-02-22T00:57:43;4.70;;;2.83;;
55170;SDS011;41060;47.510;8.680;2023-02-22T01:00:14;4.68;;;3.35;;
55170;SDS011;41060;47.510;8.680;2023-02-22T01:02:45;9.65;;;3.33;;
55170;SDS011;41060;47.510;8.680;2023-02-22T01:05:15;5.25;;;2.75;;
55170;SDS011;41060;47.510;8.680;2023-02-22T01:07:44;5.60;;;3.03;;
55170;SDS011;41060;47.510;8.680;2023-02-22T01:10:11;4.65;;;2.78;;
55170;SDS011;41060;47.510;8.680;2023-02-22T01:12:39;7.13;;;3.72;;
55170;SDS011;41060;47.510;8.680;2023-02-22T01:15:06;10.38;;;3.95;;
55170;SDS011;41060;47.510;8.680;2023-02-22T01:17:35;4.38;;;2.65;;
55170;SDS011;41060;47.510;8.680;2023-02-22T01:20:06;7.18;;;3.28;;
55170;SDS011;41060;47.510;8.680;2023-02-22T01:22:36;4.70;;;2.55;;
55170;SDS011;41060;47.510;8.680;2023-02-22T01:25:04;4.18;;;2.70;;
55170;SDS011;41060;47.510;8.680;2023-02-22T01:27:31;7.68;;;4.30;;
55170;SDS011;41060;47.510;8.680;2023-02-22T01:29:58;4.82;;;2.95;;
55170;SDS011;41060;47.510;8.680;2023-02-22T01:32:25;5.72;;;3.17;;
55170;SDS011;41060;47.510;8.680;2023-02-22T01:34:52;9.57;;;3.25;;
55170;SDS011;41060;47.510;8.680;2023-02-22T01:37:20;9.60;;;4.20;;
55170;SDS011;41060;47.510;8.680;2023-02-22T01:39:47;6.90;;;3.15;;
55170;SDS011;41060;47.510;8.680;2023-02-22T01:42:14;3.92;;;2.33;;
55170;SDS011;41060;47.510;8.680;2023-02-22T01:44:41;6.35;;;2.78;;
55170;SDS011;41060;47.510;8.680;2023-02-22T01:47:09;5.75;;;2.63;;
55170;SDS011;41060;47.510;8.680;2023-02-22T01:49:36;4.32;;;3.10;;
55170;SDS011;41060;47.510;8.680;2023-02-22T01:52:05;7.32;;;3.13;;
55170;SDS011;41060;47.510;8.680;2023-02-22T01:54:39;5.20;;;2.60;;
55170;SDS011;41060;47.510;8.680;2023-02-22T01:57:11;7.82;;;2.90;;
55170;SDS011;41060;47.510;8.680;2023-02-22T01:59:45;3.95;;;2.45;;
55170;SDS011;41060;47.510;8.680;2023-02-22T02:02:15;15.93;;;3.55;;
55170;SDS011;41060;47.510;8.680;2023-02-22T02:04:44;4.22;;;2.42;;
55170;SDS011;41060;47.510;8.680;2023-02-22T02:07:12;4.78;;;3.13;;
55170;SDS011;41060;47.510;8.680;2023-02-22T02:09:50;3.40;;;2.38;;
55170;SDS011;41060;47.510;8.680;2023-02-22T02:12:19;3.00;;;2.33;;
55170;SDS011;41060;47.510;8.680;2023-02-22T02:14:50;6.57;;;2.95;;
55170;SDS011;41060;47.510;8.680;2023-02-22T02:17:18;9.13;;;3.83;;
55170;SDS011;41060;47.510;8.680;2023-02-22T02:19:50;4.85;;;2.75;;
55170;SDS011;41060;47.510;8.680;2023-02-22T02:22:36;4.57;;;2.47;;
55170;SDS011;41060;47.510;8.680;2023-02-22T02:28:26;4.17;;;2.40;;
55170;SDS011;41060;47.510;8.680;2023-02-22T02:31:13;5.30;;;2.92;;
55170;SDS011;41060;47.510;8.680;2023-02-22T02:33:59;4.95;;;3.13;;
55170;SDS011;41060;47.510;8.680;2023-02-22T02:36:30;5.18;;;3.03;;
55170;SDS011;41060;47.510;8.680;2023-02-22T02:39:07;5.05;;;3.40;;
55170;SDS011;41060;47.510;8.680;2023-02-22T02:41:42;13.32;;;3.60;;
55170;SDS011;41060;47.510;8.680;2023-02-22T02:44:14;6.88;;;2.60;;
55170;SDS011;41060;47.510;8.680;2023-02-22T02:46:49;5.70;;;2.40;;
55170;SDS011;41060;47.510;8.680;2023-02-22T02:49:23;4.13;;;2.22;;
55170;SDS011;41060;47.510;8.680;2023-02-22T02:51:54;5.68;;;3.08;;
55170;SDS011;41060;47.510;8.680;2023-02-22T02:54:22;8.35;;;3.17;;
55170;SDS011;41060;47.510;8.680;2023-02-22T02:56:50;3.92;;;2.97;;
55170;SDS011;41060;47.510;8.680;2023-02-22T02:59:25;5.60;;;2.95;;
55170;SDS011;41060;47.510;8.680;2023-02-22T03:01:56;5.85;;;2.92;;
55170;SDS011;41060;47.510;8.680;2023-02-22T03:04:43;4.25;;;2.75;;
55170;SDS011;41060;47.510;8.680;2023-02-22T03:07:30;6.40;;;3.63;;
55170;SDS011;41060;47.510;8.680;2023-02-22T03:10:10;4.82;;;2.90;;
55170;SDS011;41060;47.510;8.680;2023-02-22T03:12:47;10.57;;;3.90;;
55170;SDS011;41060;47.510;8.680;2023-02-22T03:15:26;4.75;;;2.38;;
55170;SDS011;41060;47.510;8.680;2023-02-22T03:18:06;5.70;;;2.70;;
55170;SDS011;41060;47.510;8.680;2023-02-22T03:20:39;5.22;;;3.05;;
55170;SDS011;41060;47.510;8.680;2023-02-22T03:23:12;4.57;;;2.83;;
55170;SDS011;41060;47.510;8.680;2023-02-22T03:25:49;6.85;;;3.00;;
55170;SDS011;41060;47.510;8.680;2023-02-22T03:28:19;4.50;;;2.70;;
55170;SDS011;41060;47.510;8.680;2023-02-22T03:30:51;5.88;;;3.13;;
55170;SDS011;41060;47.510;8.680;2023-02-22T03:33:22;3.97;;;2.80;;
55170;SDS011;41060;47.510;8.680;2023-02-22T03:36:00;6.40;;;3.13;;
55170;SDS011;41060;47.510;8.680;2023-02-22T03:38:34;5.90;;;3.53;;
55170;SDS011;41060;47.510;8.680;2023-02-22T03:41:02;3.05;;;2.30;;
55170;SDS011;41060;47.510;8.680;2023-02-22T03:43:31;6.03;;;2.97;;
55170;SDS011;41060;47.510;8.680;2023-02-22T03:46:02;4.25;;;2.92;;
55170;SDS011;41060;47.510;8.680;2023-02-22T03:48:34;4.18;;;2.75;;
55170;SDS011;41060;47.510;8.680;2023-02-22T03:51:06;7.40;;;2.13;;
55170;SDS011;41060;47.510;8.680;2023-02-22T03:53:33;4.68;;;2.67;;
55170;SDS011;41060;47.510;8.680;2023-02-22T03:56:01;7.13;;;2.88;;
55170;SDS011;41060;47.510;8.680;2023-02-22T03:58:35;5.93;;;3.22;;
55170;SDS011;41060;47.510;8.680;2023-02-22T04:01:03;3.70;;;2.17;;
55170;SDS011;41060;47.510;8.680;2023-02-22T04:03:30;7.47;;;3.17;;
55170;SDS011;41060;47.510;8.680;2023-02-22T04:05:57;4.65;;;2.90;;
55170;SDS011;41060;47.510;8.680;2023-02-22T04:08:25;6.03;;;3.65;;
55170;SDS011;41060;47.510;8.680;2023-02-22T04:10:52;12.20;;;2.65;;
55170;SDS011;41060;47.510;8.680;2023-02-22T04:13:19;4.78;;;2.47;;
55170;SDS011;41060;47.510;8.680;2023-02-22T04:15:46;7.10;;;3.50;;
55170;SDS011;41060;47.510;8.680;2023-02-22T04:18:12;5.85;;;2.60;;
55170;SDS011;41060;47.510;8.680;2023-02-22T04:20:39;4.55;;;2.75;;
55170;SDS011;41060;47.510;8.680;2023-02-22T04:23:06;10.35;;;4.07;;
55170;SDS011;41060;47.510;8.680;2023-02-22T04:25:34;6.95;;;3.65;;
55170;SDS011;41060;47.510;8.680;2023-02-22T04:28:01;2.50;;;2.22;;
55170;SDS011;41060;47.510;8.680;2023-02-22T04:30:28;4.13;;;2.05;;
55170;SDS011;41060;47.510;8.680;2023-02-22T04:32:55;5.28;;;3.45;;
55170;SDS011;41060;47.510;8.680;2023-02-22T04:35:22;5.32;;;3.20;;
55170;SDS011;41060;47.510;8.680;2023-02-22T04:37:49;4.00;;;2.50;;
55170;SDS011;41060;47.510;8.680;2023-02-22T04:40:15;4.50;;;3.25;;
55170;SDS011;41060;47.510;8.680;2023-02-22T04:42:44;6.90;;;3.10;;
55170;SDS011;41060;47.510;8.680;2023-02-22T04:45:11;7.18;;;2.30;;
55170;SDS011;41060;47.510;8.680;2023-02-22T04:47:37;8.30;;;3.08;;
55170;SDS011;41060;47.510;8.680;2023-02-22T04:50:06;5.80;;;3.10;;
55170;SDS011;41060;47.510;8.680;2023-02-22T04:52:34;4.75;;;2.75;;
55170;SDS011;41060;47.510;8.680;2023-02-22T04:55:00;6.45;;;2.45;;
55170;SDS011;41060;47.510;8.680;2023-02-22T04:57:27;7.13;;;3.53;;
55170;SDS011;41060;47.510;8.680;2023-02-22T04:59:55;6.00;;;3.35;;
55170;SDS011;41060;47.510;8.680;2023-02-22T05:02:22;5.45;;;3.15;;
55170;SDS011;41060;47.510;8.680;2023-02-22T05:04:49;5.47;;;2.92;;
55170;SDS011;41060;47.510;8.680;2023-02-22T05:07:16;6.03;;;3.60;;
55170;SDS011;41060;47.510;8.680;2023-02-22T05:09:43;6.30;;;3.88;;
55170;SDS011;41060;47.510;8.680;2023-02-22T05:12:10;5.95;;;3.15;;
55170;SDS011;41060;47.510;8.680;2023-02-22T05:14:36;3.85;;;2.45;;
55170;SDS011;41060;47.510;8.680;2023-02-22T05:17:04;5.72;;;2.92;;
55170;SDS011;41060;47.510;8.680;2023-02-22T05:19:31;5.05;;;2.97;;
55170;SDS011;41060;47.510;8.680;2023-02-22T05:21:58;12.90;;;3.63;;
55170;SDS011;41060;47.510;8.680;2023-02-22T05:24:25;3.63;;;2.22;;
55170;SDS011;41060;47.510;8.680;2023-02-22T05:26:52;4.88;;;2.75;;
55170;SDS011;41060;47.510;8.680;2023-02-22T05:29:18;6.13;;;2.45;;
55170;SDS011;41060;47.510;8.680;2023-02-22T05:31:45;4.53;;;3.13;;
55170;SDS011;41060;47.510;8.680;2023-02-22T05:34:14;4.45;;;3.15;;
55170;SDS011;41060;47.510;8.680;2023-02-22T05:36:41;2.45;;;2.25;;
55170;SDS011;41060;47.510;8.680;2023-02-22T05:39:07;10.90;;;3.75;;
55170;SDS011;41060;47.510;8.680;2023-02-22T05:41:34;2.72;;;2.28;;
55170;SDS011;41060;47.510;8.680;2023-02-22T05:44:01;4.85;;;3.60;;
55170;SDS011;41060;47.510;8.680;2023-02-22T05:46:28;4.40;;;3.10;;
55170;SDS011;41060;47.510;8.680;2023-02-22T05:48:55;7.38;;;4.05;;
55170;SDS011;41060;47.510;8.680;2023-02-22T05:51:24;6.20;;;3.45;;
55170;SDS011;41060;47.510;8.680;2023-02-22T05:53:56;7.82;;;3.25;;
55170;SDS011;41060;47.510;8.680;2023-02-22T05:56:24;3.47;;;2.28;;
55170;SDS011;41060;47.510;8.680;2023-02-22T05:58:52;9.93;;;3.67;;
55170;SDS011;41060;47.510;8.680;2023-02-22T06:01:19;4.97;;;2.20;;
55170;SDS011;41060;47.510;8.680;2023-02-22T06:03:49;6.75;;;3.65;;
55170;SDS011;41060;47.510;8.680;2023-02-22T06:06:17;4.35;;;3.10;;
55170;SDS011;41060;47.510;8.680;2023-02-22T06:08:49;8.63;;;3.85;;
55170;SDS011;41060;47.510;8.680;2023-02-22T06:11:17;11.05;;;3.05;;
55170;SDS011;41060;47.510;8.680;2023-02-22T06:13:48;7.22;;;2.58;;
55170;SDS011;41060;47.510;8.680;2023-02-22T06:16:15;6.18;;;2.65;;
55170;SDS011;41060;47.510;8.680;2023-02-22T06:18:42;11.70;;;3.58;;
55170;SDS011;41060;47.510;8.680;2023-02-22T06:21:08;8.05;;;3.67;;
55170;SDS011;41060;47.510;8.680;2023-02-22T06:23:35;8.25;;;3.60;;
55170;SDS011;41060;47.510;8.680;2023-02-22T06:26:03;4.47;;;3.38;;
55170;SDS011;41060;47.510;8.680;2023-02-22T06:28:30;9.80;;;3.47;;
55170;SDS011;41060;47.510;8.680;2023-02-22T06:30:57;3.58;;;2.22;;
55170;SDS011;41060;47.510;8.680;2023-02-22T06:33:24;5.93;;;2.67;;
55170;SDS011;41060;47.510;8.680;2023-02-22T06:35:50;3.92;;;2.75;;
55170;SDS011;41060;47.510;8.680;2023-02-22T06:38:21;7.72;;;3.10;;
55170;SDS011;41060;47.510;8.680;2023-02-22T06:40:47;6.85;;;2.50;;
55170;SDS011;41060;47.510;8.680;2023-02-22T06:43:15;7.72;;;3.28;;
55170;SDS011;41060;47.510;8.680;2023-02-22T06:45:43;7.03;;;3.88;;
55170;SDS011;41060;47.510;8.680;2023-02-22T06:48:09;5.57;;;2.83;;
55170;SDS011;41060;47.510;8.680;2023-02-22T06:50:36;6.30;;;2.75;;
55170;SDS011;41060;47.510;8.680;2023-02-22T06:53:03;5.05;;;3.60;;
55170;SDS011;41060;47.510;8.680;2023-02-22T06:55:30;6.32;;;3.08;;
55170;SDS011;41060;47.510;8.680;2023-02-22T06:57:58;4.75;;;3.55;;
55170;SDS011;41060;47.510;8.680;2023-02-22T07:00:28;7.18;;;3.33;;
55170;SDS011;41060;47.510;8.680;2023-02-22T07:02:56;4.78;;;3.50;;
55170;SDS011;41060;47.510;8.680;2023-02-22T07:05:24;6.07;;;3.15;;
55170;SDS011;41060;47.510;8.680;2023-02-22T07:08:00;4.28;;;3.05;;
55170;SDS011;41060;47.510;8.680;2023-02-22T07:10:29;9.45;;;3.58;;
55170;SDS011;41060;47.510;8.680;2023-02-22T07:12:58;6.40;;;3.53;;
55170;SDS011;41060;47.510;8.680;2023-02-22T07:15:25;5.88;;;2.70;;
55170;SDS011;41060;47.510;8.680;2023-02-22T07:17:54;6.95;;;2.67;;
55170;SDS011;41060;47.510;8.680;2023-02-22T07:20:22;5.03;;;2.72;;
55170;SDS011;41060;47.510;8.680;2023-02-22T07:22:49;17.08;;;4.28;;
55170;SDS011;41060;47.510;8.680;2023-02-22T07:25:16;6.82;;;2.95;;
55170;SDS011;41060;47.510;8.680;2023-02-22T07:27:44;8.35;;;3.63;;
55170;SDS011;41060;47.510;8.680;2023-02-22T07:30:15;7.80;;;3.42;;
55170;SDS011;41060;47.510;8.680;2023-02-22T07:32:44;4.68;;;2.78;;
55170;SDS011;41060;47.510;8.680;2023-02-22T07:35:16;5.80;;;3.15;;
55170;SDS011;41060;47.510;8.680;2023-02-22T07:37:45;8.38;;;3.85;;
55170;SDS011;41060;47.510;8.680;2023-02-22T07:40:12;31.83;;;5.15;;
55170;SDS011;41060;47.510;8.680;2023-02-22T07:42:49;7.18;;;3.90;;
55170;SDS011;41060;47.510;8.680;2023-02-22T07:45:17;6.72;;;3.78;;
55170;SDS011;41060;47.510;8.680;2023-02-22T07:47:45;7.85;;;4.65;;
55170;SDS011;41060;47.510;8.680;2023-02-22T07:50:12;7.30;;;3.40;;
55170;SDS011;41060;47.510;8.680;2023-02-22T07:52:43;4.20;;;2.90;;
55170;SDS011;41060;47.510;8.680;2023-02-22T07:55:10;5.88;;;4.15;;
55170;SDS011;41060;47.510;8.680;2023-02-22T07:57:38;7.32;;;4.05;;
55170;SDS011;41060;47.510;8.680;2023-02-22T08:00:05;4.07;;;3.38;;
55170;SDS011;41060;47.510;8.680;2023-02-22T08:02:33;9.98;;;4.25;;
55170;SDS011;41060;47.510;8.680;2023-02-22T08:04:59;8.18;;;3.53;;
55170;SDS011;41060;47.510;8.680;2023-02-22T08:07:26;6.38;;;3.25;;
55170;SDS011;41060;47.510;8.680;2023-02-22T08:09:54;6.38;;;3.13;;
55170;SDS011;41060;47.510;8.680;2023-02-22T08:12:22;10.93;;;3.35;;
55170;SDS011;41060;47.510;8.680;2023-02-22T08:14:53;8.55;;;2.85;;
55170;SDS011;41060;47.510;8.680;2023-02-22T08:17:19;4.72;;;2.83;;
55170;SDS011;41060;47.510;8.680;2023-02-22T08:19:46;5.88;;;3.47;;
55170;SDS011;41060;47.510;8.680;2023-02-22T08:22:13;10.32;;;3.13;;
55170;SDS011;41060;47.510;8.680;2023-02-22T08:24:40;5.70;;;3.17;;
55170;SDS011;41060;47.510;8.680;2023-02-22T08:27:10;9.48;;;3.70;;
55170;SDS011;41060;47.510;8.680;2023-02-22T08:29:39;12.85;;;4.38;;
55170;SDS011;41060;47.510;8.680;2023-02-22T08:32:05;6.75;;;3.83;;
55170;SDS011;41060;47.510;8.680;2023-02-22T08:34:32;6.05;;;3.53;;
55170;SDS011;41060;47.510;8.680;2023-02-22T08:36:59;6.07;;;3.78;;
55170;SDS011;41060;47.510;8.680;2023-02-22T08:39:25;7.70;;;3.15;;
55170;SDS011;41060;47.510;8.680;2023-02-22T08:41:52;7.60;;;2.60;;
55170;SDS011;41060;47.510;8.680;2023-02-22T08:44:20;5.43;;;2.95;;
55170;SDS011;41060;47.510;8.680;2023-02-22T08:46:48;5.28;;;3.33;;
55170;SDS011;41060;47.510;8.680;2023-02-22T08:49:15;11.60;;;4.15;;
55170;SDS011;41060;47.510;8.680;2023-02-22T08:51:43;7.35;;;4.55;;
55170;SDS011;41060;47.510;8.680;2023-02-22T08:54:09;7.45;;;2.95;;
55170;SDS011;41060;47.510;8.680;2023-02-22T08:56:36;5.00;;;3.40;;
55170;SDS011;41060;47.510;8.680;2023-02-22T08:59:05;7.63;;;3.40;;
55170;SDS011;41060;47.510;8.680;2023-02-22T09:01:33;10.68;;;3.13;;
55170;SDS011;41060;47.510;8.680;2023-02-22T09:03:59;5.55;;;2.67;;
55170;SDS011;41060;47.510;8.680;2023-02-22T09:06:27;8.15;;;3.95;;
55170;SDS011;41060;47.510;8.680;2023-02-22T09:08:54;6.95;;;3.80;;
55170;SDS011;41060;47.510;8.680;2023-02-22T09:11:20;5.57;;;3.33;;
55170;SDS011;41060;47.510;8.680;2023-02-22T09:13:48;8.13;;;3.95;;
55170;SDS011;41060;47.510;8.680;2023-02-22T09:16:14;7.20;;;3.63;;
55170;SDS011;41060;47.510;8.680;2023-02-22T09:18:42;5.55;;;3.70;;
55170;SDS011;41060;47.510;8.680;2023-02-22T09:21:10;6.00;;;3.17;;
55170;SDS011;41060;47.510;8.680;2023-02-22T09:23:37;7.75;;;5.07;;
55170;SDS011;41060;47.510;8.680;2023-02-22T09:26:03;10.63;;;4.10;;
55170;SDS011;41060;47.510;8.680;2023-02-22T09:28:33;11.43;;;4.90;;
55170;SDS011;41060;47.510;8.680;2023-02-22T09:31:00;7.25;;;4.53;;
55170;SDS011;41060;47.510;8.680;2023-02-22T09:33:26;7.82;;;4.05;;
55170;SDS011;41060;47.510;8.680;2023-02-22T09:35:55;7.35;;;4.10;;
55170;SDS011;41060;47.510;8.680;2023-02-22T09:38:24;7.93;;;3.60;;
55170;SDS011;41060;47.510;8.680;2023-02-22T09:40:57;6.15;;;3.58;;
55170;SDS011;41060;47.510;8.680;2023-02-22T09:43:36;8.18;;;5.40;;
55170;SDS011;41060;47.510;8.680;2023-02-22T09:46:12;8.65;;;4.32;;
55170;SDS011;41060;47.510;8.680;2023-02-22T09:48:50;8.07;;;4.90;;
55170;SDS011;41060;47.510;8.680;2023-02-22T09:51:25;7.47;;;3.83;;
55170;SDS011;41060;47.510;8.680;2023-02-22T09:53:59;6.25;;;4.00;;
55170;SDS011;41060;47.510;8.680;2023-02-22T09:56:28;9.77;;;5.47;;
55170;SDS011;41060;47.510;8.680;2023-02-22T09:58:59;6.40;;;4.15;;
55170;SDS011;41060;47.510;8.680;2023-02-22T10:01:29;18.75;;;4.85;;
55170;SDS011;41060;47.510;8.680;2023-02-22T10:04:03;6.55;;;4.07;;
55170;SDS011;41060;47.510;8.680;2023-02-22T10:06:36;7.55;;;5.10;;
55170;SDS011;41060;47.510;8.680;2023-02-22T10:09:08;6.75;;;4.25;;
55170;SDS011;41060;47.510;8.680;2023-02-22T10:11:49;7.15;;;4.78;;
55170;SDS011;41060;47.510;8.680;2023-02-22T10:14:27;9.55;;;4.47;;
55170;SDS011;41060;47.510;8.680;2023-02-22T10:17:04;7.60;;;4.38;;
55170;SDS011;41060;47.510;8.680;2023-02-22T10:19:38;11.15;;;5.15;;
55170;SDS011;41060;47.510;8.680;2023-02-22T10:22:23;7.55;;;3.90;;
55170;SDS011;41060;47.510;8.680;2023-02-22T10:24:58;10.23;;;5.47;;
55170;SDS011;41060;47.510;8.680;2023-02-22T10:27:30;8.68;;;4.43;;
55170;SDS011;41060;47.510;8.680;2023-02-22T10:30:00;8.88;;;5.00;;
55170;SDS011;41060;47.510;8.680;2023-02-22T10:32:35;11.68;;;5.50;;
55170;SDS011;41060;47.510;8.680;2023-02-22T10:35:12;8.75;;;4.43;;
55170;SDS011;41060;47.510;8.680;2023-02-22T10:37:46;15.82;;;5.32;;
55170;SDS011;41060;47.510;8.680;2023-02-22T10:40:18;12.40;;;5.30;;
55170;SDS011;41060;47.510;8.680;2023-02-22T10:42:57;9.82;;;4.45;;
55170;SDS011;41060;47.510;8.680;2023-02-22T10:45:30;9.70;;;4.70;;
55170;SDS011;41060;47.510;8.680;2023-02-22T10:47:59;9.20;;;5.10;;
55170;SDS011;41060;47.510;8.680;2023-02-22T10:50:32;13.48;;;5.75;;
55170;SDS011;41060;47.510;8.680;2023-02-22T10:53:04;8.77;;;4.43;;
55170;SDS011;41060;47.510;8.680;2023-02-22T10:55:31;10.85;;;4.30;;
55170;SDS011;41060;47.510;8.680;2023-02-22T10:57:59;12.95;;;5.07;;
55170;SDS011;41060;47.510;8.680;2023-02-22T11:00:31;10.10;;;4.95;;
55170;SDS011;41060;47.510;8.680;2023-02-22T11:03:02;9.82;;;5.20;;
55170;SDS011;41060;47.510;8.680;2023-02-22T11:05:32;12.55;;;5.18;;
55170;SDS011;41060;47.510;8.680;2023-02-22T11:10:59;6.20;;;4.45;;
55170;SDS011;41060;47.510;8.680;2023-02-22T11:13:28;11.13;;;4.90;;
55170;SDS011;41060;47.510;8.680;2023-02-22T11:15:57;7.55;;;4.43;;
55170;SDS011;41060;47.510;8.680;2023-02-22T11:18:28;10.90;;;5.47;;
55170;SDS011;41060;47.510;8.680;2023-02-22T11:20:58;10.70;;;4.95;;
55170;SDS011;41060;47.510;8.680;2023-02-22T11:23:27;9.13;;;4.55;;
55170;SDS011;41060;47.510;8.680;2023-02-22T11:26:01;9.15;;;4.55;;
55170;SDS011;41060;47.510;8.680;2023-02-22T11:28:32;10.63;;;4.28;;
55170;SDS011;41060;47.510;8.680;2023-02-22T11:31:07;8.43;;;4.97;;
55170;SDS011;41060;47.510;8.680;2023-02-22T11:33:37;7.93;;;4.03;;
55170;SDS011;41060;47.510;8.680;2023-02-22T11:36:04;9.10;;;5.03;;
55170;SDS011;41060;47.510;8.680;2023-02-22T11:38:35;7.95;;;4.93;;
55170;SDS011;41060;47.510;8.680;2023-02-22T11:41:06;10.75;;;5.55;;
55170;SDS011;41060;47.510;8.680;2023-02-22T11:43:39;8.30;;;4.30;;
55170;SDS011;41060;47.510;8.680;2023-02-22T11:46:11;10.15;;;4.38;;
55170;SDS011;41060;47.510;8.680;2023-02-22T11:48:40;7.82;;;4.47;;
55170;SDS011;41060;47.510;8.680;2023-02-22T11:51:23;13.38;;;5.32;;
55170;SDS011;41060;47.510;8.680;2023-02-22T11:54:04;8.75;;;4.63;;
55170;SDS011;41060;47.510;8.680;2023-02-22T11:56:51;8.88;;;4.65;;
55170;SDS011;41060;47.510;8.680;2023-02-22T11:59:29;11.50;;;5.00;;
55170;SDS011;41060;47.510;8.680;2023-02-22T12:02:13;11.48;;;4.53;;
55170;SDS011;41060;47.510;8.680;2023-02-22T12:04:58;9.70;;;5.18;;
55170;SDS011;41060;47.510;8.680;2023-02-22T12:07:44;7.47;;;4.95;;
55170;SDS011;41060;47.510;8.680;2023-02-22T12:10:23;8.80;;;4.88;;
55170;SDS011;41060;47.510;8.680;2023-02-22T12:13:02;8.48;;;5.18;;
55170;SDS011;41060;47.510;8.680;2023-02-22T12:15:43;10.80;;;5.15;;
55170;SDS011;41060;47.510;8.680;2023-02-22T12:18:19;7.95;;;4.60;;
55170;SDS011;41060;47.510;8.680;2023-02-22T12:20:52;11.85;;;5.50;;
55170;SDS011;41060;47.510;8.680;2023-02-22T12:23:23;8.13;;;4.82;;
55170;SDS011;41060;47.510;8.680;2023-02-22T12:25:56;9.95;;;4.93;;
55170;SDS011;41060;47.510;8.680;2023-02-22T12:28:32;9.40;;;4.80;;
55170;SDS011;41060;47.510;8.680;2023-02-22T12:33:39;7.68;;;4.43;;
55170;SDS011;41060;47.510;8.680;2023-02-22T12:36:14;10.73;;;5.53;;
55170;SDS011;41060;47.510;8.680;2023-02-22T12:38:47;12.02;;;5.95;;
55170;SDS011;41060;47.510;8.680;2023-02-22T12:41:19;8.82;;;4.95;;
55170;SDS011;41060;47.510;8.680;2023-02-22T12:43:54;8.70;;;4.40;;
55170;SDS011;41060;47.510;8.680;2023-02-22T12:46:26;10.70;;;4.45;;
55170;SDS011;41060;47.510;8.680;2023-02-22T12:48:59;9.30;;;5.17;;
55170;SDS011;41060;47.510;8.680;2023-02-22T12:51:31;11.67;;;5.07;;
55170;SDS011;41060;47.510;8.680;2023-02-22T12:54:06;7.72;;;4.55;;
55170;SDS011;41060;47.510;8.680;2023-02-22T12:56:39;8.15;;;3.97;;
55170;SDS011;41060;47.510;8.680;2023-02-22T12:59:15;9.85;;;4.18;;
55170;SDS011;41060;47.510;8.680;2023-02-22T13:01:49;7.72;;;4.38;;
55170;SDS011;41060;47.510;8.680;2023-02-22T13:04:19;10.63;;;4.22;;
55170;SDS011;41060;47.510;8.680;2023-02-22T13:06:52;13.02;;;5.22;;
55170;SDS011;41060;47.510;8.680;2023-02-22T13:09:32;8.43;;;4.18;;
55170;SDS011;41060;47.510;8.680;2023-02-22T13:12:15;12.52;;;4.82;;
55170;SDS011;41060;47.510;8.680;2023-02-22T13:14:51;7.72;;;3.15;;
55170;SDS011;41060;47.510;8.680;2023-02-22T13:17:28;8.60;;;4.32;;
55170;SDS011;41060;47.510;8.680;2023-02-22T13:20:05;6.75;;;4.45;;
55170;SDS011;41060;47.510;8.680;2023-02-22T13:22:43;8.77;;;4.05;;
55170;SDS011;41060;47.510;8.680;2023-02-22T13:25:17;9.75;;;3.92;;
55170;SDS011;41060;47.510;8.680;2023-02-22T13:27:51;9.13;;;4.78;;
55170;SDS011;41060;47.510;8.680;2023-02-22T13:30:28;9.15;;;5.03;;
55170;SDS011;41060;47.510;8.680;2023-02-22T13:33:06;9.23;;;3.67;;
55170;SDS011;41060;47.510;8.680;2023-02-22T13:35:46;8.98;;;3.97;;
55170;SDS011;41060;47.510;8.680;2023-02-22T13:38:37;9.35;;;4.03;;
55170;SDS011;41060;47.510;8.680;2023-02-22T13:44:29;7.63;;;4.38;;
55170;SDS011;41060;47.510;8.680;2023-02-22T13:50:28;11.52;;;4.70;;
55170;SDS011;41060;47.510;8.680;2023-02-22T13:53:13;8.88;;;4.57;;
55170;SDS011;41060;47.510;8.680;2023-02-22T13:55:46;5.93;;;4.38;;
55170;SDS011;41060;47.510;8.680;2023-02-22T13:58:17;8.18;;;3.90;;
55170;SDS011;41060;47.510;8.680;2023-02-22T14:00:46;9.68;;;4.65;;
55170;SDS011;41060;47.510;8.680;2023-02-22T14:03:29;10.70;;;5.18;;
55170;SDS011;41060;47.510;8.680;2023-02-22T14:06:01;8.60;;;4.53;;
55170;SDS011;41060;47.510;8.680;2023-02-22T14:08:41;8.05;;;4.85;;
55170;SDS011;41060;47.510;8.680;2023-02-22T14:14:18;4.88;;;3.20;;
55170;SDS011;41060;47.510;8.680;2023-02-22T14:19:52;8.48;;;4.60;;
55170;SDS011;41060;47.510;8.680;2023-02-22T14:22:27;10.43;;;4.68;;
55170;SDS011;41060;47.510;8.680;2023-02-22T14:24:56;8.95;;;4.63;;
55170;SDS011;41060;47.510;8.680;2023-02-22T14:27:23;9.48;;;4.78;;
55170;SDS011;41060;47.510;8.680;2023-02-22T14:29:52;8.20;;;4.45;;
55170;SDS011;41060;47.510;8.680;2023-02-22T14:32:28;11.55;;;5.05;;
55170;SDS011;41060;47.510;8.680;2023-02-22T14:34:58;8.73;;;4.55;;
55170;SDS011;41060;47.510;8.680;2023-02-22T14:37:29;7.10;;;3.67;;
55170;SDS011;41060;47.510;8.680;2023-02-22T14:40:02;12.40;;;5.07;;
55170;SDS011;41060;47.510;8.680;2023-02-22T14:42:37;6.57;;;3.63;;
55170;SDS011;41060;47.510;8.680;2023-02-22T14:45:13;8.40;;;4.20;;
55170;SDS011;41060;47.510;8.680;2023-02-22T14:47:46;6.50;;;3.90;;
55170;SDS011;41060;47.510;8.680;2023-02-22T14:50:24;10.48;;;4.18;;
55170;SDS011;41060;47.510;8.680;2023-02-22T14:52:58;6.93;;;4.32;;
55170;SDS011;41060;47.510;8.680;2023-02-22T14:55:29;11.07;;;4.65;;
55170;SDS011;41060;47.510;8.680;2023-02-22T14:57:59;9.90;;;4.60;;
55170;SDS011;41060;47.510;8.680;2023-02-22T15:00:37;7.05;;;4.25;;
55170;SDS011;41060;47.510;8.680;2023-02-22T15:03:10;10.00;;;5.22;;
55170;SDS011;41060;47.510;8.680;2023-02-22T15:05:45;11.95;;;4.50;;
55170;SDS011;41060;47.510;8.680;2023-02-22T15:08:14;8.45;;;4.88;;
55170;SDS011;41060;47.510;8.680;2023-02-22T15:10:42;5.20;;;3.20;;
55170;SDS011;41060;47.510;8.680;2023-02-22T15:13:14;6.43;;;3.88;;
55170;SDS011;41060;47.510;8.680;2023-02-22T15:15:43;9.88;;;4.15;;
55170;SDS011;41060;47.510;8.680;2023-02-22T15:18:19;6.57;;;3.83;;
55170;SDS011;41060;47.510;8.680;2023-02-22T15:20:51;4.38;;;3.03;;
55170;SDS011;41060;47.510;8.680;2023-02-22T15:23:23;11.05;;;3.97;;
55170;SDS011;41060;47.510;8.680;2023-02-22T15:25:54;6.80;;;4.03;;
55170;SDS011;41060;47.510;8.680;2023-02-22T15:28:21;9.60;;;4.28;;